• Join FlightAware (Why Join?)
  • Login
  • US Flag 
03:25PM EDT


 

Airport Tracker/Info


-or-


 

Live Flight TrackerFlight Track Log ✈ GJS3707 ✈ 12-Jun-2013 ✈ KDLH - KBOI

Flight Track Log - Related Links

Times and Time Zones

All times are in EDT time to prevent confusion due to time zone crossing. See the GJS3707 flight status page for this flight to view local times or setup timezone preferences in your user account.

Time Position Orientation Groundspeed Altitude Reporting Facility
EDT Latitude Longitude Course Direction KTS MPH feet Rate Location/Type
09:03PM 46.8361 -92.3181 270° West 203 234 4,600  Level Minneapolis Center
09:04PM 46.8372 -92.4264 271° West 238 274 7,100 2,700 Climbing Minneapolis Center
09:05PM 46.8372 -92.5400 270° West 274 315 10,200 2,280 Climbing Minneapolis Center
09:06PM 46.8367 -92.6658 270° West 296 341 11,900 2,280 Climbing Minneapolis Center
09:07PM 46.8367 -92.8342 270° West 334 384 15,000 2,460 Climbing Minneapolis Center
09:08PM 46.8334 -93.1387 270° West  Level FlightAware Approximate
09:08PM 46.8353 -92.9783 269° West 345 397 17,000  Level Minneapolis Center
09:09PM 46.8336 -93.1292 269° West 356 410 18,800 1,740 Climbing Minneapolis Center
09:10PM 46.8331 -93.2864 270° West 369 425 20,700 1,800 Climbing Minneapolis Center
09:11PM 46.8328 -93.4450 270° West 381 438 22,600 1,740 Climbing Minneapolis Center
09:12PM 46.8311 -93.6050 269° West 390 449 24,300 1,560 Climbing Minneapolis Center
09:13PM 46.8294 -93.7700 269° West 400 460 25,800 1,320 Climbing Minneapolis Center
09:14PM 46.8272 -93.9381 269° West 409 471 27,100 1,260 Climbing Minneapolis Center
09:15PM 46.8253 -94.1408 269° West 417 480 28,500 1,140 Climbing Minneapolis Center
09:16PM 46.8222 -94.3125 269° West 421 484 29,500 960 Climbing Minneapolis Center
09:17PM 46.8192 -94.4881 269° West 430 495 30,600 1,020 Climbing Minneapolis Center
09:18PM 46.8161 -94.6622 269° West 431 496 31,600 660 Climbing Minneapolis Center
09:19PM 46.8119 -94.8406 268° West 439 505 32,000 180 Climbing Minneapolis Center
09:20PM 46.8083 -95.0236 268° West 449 517 32,000  Level Minneapolis Center
09:21PM 46.8033 -95.2078 268° West 455 524 32,000 600 Level Minneapolis Center
09:22PM 46.7992 -95.4264 268° West 451 519 33,300 1,140 Climbing Minneapolis Center
09:23PM 46.7953 -95.6056 268° West 445 512 34,400 1,020 Climbing Minneapolis Center
09:24PM 46.7892 -95.7778 267° West 434 499 35,400 1,020 Climbing Minneapolis Center
09:25PM 46.7844 -95.9633 268° West 428 493 36,600 1,140 Climbing Minneapolis Center
09:26PM 46.7786 -96.1294 267° West 417 480 37,800 780 Climbing Minneapolis Center
09:27PM 46.7739 -96.2936 268° West 409 471 38,300 480 Climbing Minneapolis Center
09:28PM 46.7683 -96.4594 267° West 409 471 38,800 480 Climbing Minneapolis Center
09:29PM 46.7617 -96.6264 267° West 411 473 39,300 480 Climbing Minneapolis Center
09:30PM 46.7561 -96.7917 267° West 410 472 39,800 300 Climbing Minneapolis Center
09:31PM 46.7575 -96.9592 271° West 412 474 40,000 60 Climbing Minneapolis Center
09:32PM 46.7672 -97.1606 274° West 416 479 40,000  Level Minneapolis Center
09:33PM 46.7739 -97.3272 273° West 413 475 40,000  Level Minneapolis Center
09:35PM 46.7808 -97.4908 274° West 405 466 40,000  Level Minneapolis Center
09:36PM 46.7864 -97.6589 273° West 411 473 40,000  Level Minneapolis Center
09:37PM 46.7925 -97.8264 273° West 413 475 40,000  Level Minneapolis Center
09:38PM 46.7978 -97.9956 273° West 415 478 40,000  Level Minneapolis Center
09:39PM 46.8036 -98.1653 273° West 418 481 40,000  Level Minneapolis Center
09:40PM 46.8097 -98.3372 273° West 421 484 40,000  Level Minneapolis Center
09:41PM 46.8156 -98.5408 272° West 420 483 40,000  Level Minneapolis Center
09:42PM 46.8208 -98.7103 273° West 419 482 40,000 -60 Level Minneapolis Center
09:43PM 46.8256 -98.8786 272° West 417 480 39,900  Descending Minneapolis Center
09:44PM 46.8286 -99.0444 272° West 412 474 40,000  Climbing Minneapolis Center
09:45PM 46.8328 -99.2131 272° West 415 478 40,000  Level Minneapolis Center
09:46PM 46.8378 -99.3822 273° West 416 479 40,000  Level Minneapolis Center
09:47PM 46.8403 -99.5494 271° West 415 478 40,000  Level Minneapolis Center
09:48PM 46.8442 -99.7142 272° West 409 471 40,000  Level Minneapolis Center
09:49PM 46.8467 -99.8778 271° West 406 467 40,000  Level Minneapolis Center
09:50PM 46.8503 -100.0756 272° West 406 467 40,000  Level Minneapolis Center
09:51PM 46.8531 -100.2381 271° West 404 465 40,000  Level Minneapolis Center
09:52PM 46.8550 -100.4011 271° West 402 463 40,000  Level Minneapolis Center
09:53PM 46.8569 -100.5731 271° West 401 461 40,000  Level Minneapolis Center
09:54PM 46.8575 -100.7347 270° West 400 460 40,000  Level Minneapolis Center
09:55PM 46.8592 -100.8975 271° West 401 461 40,000  Level Minneapolis Center
09:56PM 46.8600 -101.0625 270° West 403 464 40,000  Level Minneapolis Center
09:57PM 46.8606 -101.2275 270° West 406 467 40,000  Level Minneapolis Center
09:58PM 46.8608 -101.3908 270° West 406 467 40,000  Level Minneapolis Center
09:59PM 46.8614 -101.5536 270° West 404 465 40,000  Level Minneapolis Center
10:00PM 46.8625 -101.7200 271° West 404 465 40,000  Level Minneapolis Center
10:01PM 46.8644 -101.9161 271° West 403 464 40,000  Level Minneapolis Center
10:02PM 46.8631 -102.0792 269° West 403 464 40,000  Level Minneapolis Center
10:03PM 46.8633 -102.2422 270° West 401 461 40,000  Level Minneapolis Center
10:04PM 46.8639 -102.4044 270° West 401 461 40,000  Level Minneapolis Center
10:05PM 46.8639 -102.5678 270° West 402 463 40,000  Level Minneapolis Center
10:06PM 46.8631 -102.7314 270° West 403 464 40,000  Level Minneapolis Center
10:07PM 46.8456 -102.8942 261° West 403 464 40,000 -60 Level Minneapolis Center
10:08PM 46.8200 -103.0575 257° West 404 465 39,900  Descending Salt Lake Center
10:09PM 46.7975 -103.2183 259° West 406 467 40,000  Climbing Salt Lake Center
10:10PM 46.7750 -103.3778 258° West 405 466 39,900  Descending Salt Lake Center
10:11PM 46.7519 -103.5408 258° West 406 467 40,000  Climbing Salt Lake Center
10:12PM 46.7289 -103.7008 258° West 406 467 40,000  Level Salt Lake Center
10:13PM 46.7056 -103.8644 258° West 408 470 40,000  Level Salt Lake Center
10:14PM 46.6808 -104.0228 257° West 406 467 40,000  Level Salt Lake Center
10:15PM 46.6575 -104.1836 258° West 405 466 40,000  Level Salt Lake Center
10:16PM 46.6328 -104.3439 257° West 407 468 40,000  Level Salt Lake Center
10:17PM 46.6031 -104.5367 257° West 407 468 40,000  Level Salt Lake Center
10:18PM 46.5761 -104.6969 256° West 408 470 40,000  Level Salt Lake Center
10:19PM 46.5472 -104.8583 255° West 407 468 40,000  Level Salt Lake Center
10:20PM 46.5178 -105.0092 254° West 407 468 40,000  Level Salt Lake Center
10:22PM 46.4869 -105.1875 256° West 407 468 40,000  Level Salt Lake Center
10:23PM 46.4592 -105.3400 255° West 408 470 40,000  Level Salt Lake Center
10:24PM 46.4322 -105.4917 256° West 408 470 40,000  Level Salt Lake Center
10:25PM 46.4000 -105.6692 255° West 408 470 40,000  Level Salt Lake Center
10:26PM 46.3725 -105.8206 255° West 407 468 40,000  Level Salt Lake Center
10:27PM 46.3400 -105.9961 255° West 407 468 40,000  Level Salt Lake Center
10:28PM 46.3122 -106.1456 255° West 405 466 40,000  Level Salt Lake Center
10:29PM 46.2789 -106.3206 255° West 404 465 40,000  Level Salt Lake Center
10:30PM 46.2517 -106.4703 255° West 404 465 40,000  Level Salt Lake Center
10:31PM 46.2233 -106.6172 254° West 401 461 40,000  Level Salt Lake Center
10:32PM 46.1889 -106.7908 254° West 402 463 40,000  Level Salt Lake Center
10:33PM 46.1586 -106.9389 254° West 402 463 40,000  Level Salt Lake Center
10:34PM 46.1250 -107.1097 254° West 399 459 40,000  Level Salt Lake Center
10:35PM 46.0939 -107.2603 253° West 404 465 40,000  Level Salt Lake Center
10:36PM 46.0636 -107.4081 254° West 404 465 40,000  Level Salt Lake Center
10:37PM 46.0283 -107.5817 254° West 404 465 40,000  Level Salt Lake Center
10:38PM 45.9975 -107.7306 253° West 405 466 40,000  Level Salt Lake Center
10:39PM 45.9617 -107.9042 254° West 406 467 40,000  Level Salt Lake Center
10:40PM 45.9303 -108.0528 253° West 407 468 40,000  Level Salt Lake Center
10:41PM 45.8933 -108.2275 253° West 411 473 40,000  Level Salt Lake Center
10:42PM 45.8617 -108.3753 253° West 408 470 40,000  Level Salt Lake Center
10:43PM 45.8292 -108.5331 254° West 437 503 40,000  Level Salt Lake Center
10:44PM 45.7750 -108.7014 245° Southwest 437 503 40,000  Level Salt Lake Center
10:45PM 45.7156 -108.8297 236° Southwest 406 467 40,000  Level Salt Lake Center
10:46PM 45.6467 -108.9822 237° Southwest 408 470 40,000  Level Salt Lake Center
10:47PM 45.5881 -109.1108 237° Southwest 406 467 40,000  Level Salt Lake Center
10:48PM 45.5197 -109.2581 237° Southwest 399 459 40,000  Level Salt Lake Center
10:49PM 45.4622 -109.3839 237° Southwest 396 456 40,000  Level Salt Lake Center
10:50PM 45.4058 -109.5078 237° Southwest 392 451 40,000  Level Salt Lake Center
10:51PM 45.3389 -109.6514 236° Southwest 389 448 40,000  Level Salt Lake Center
10:52PM 45.2819 -109.7742 237° Southwest 389 448 40,000  Level Salt Lake Center
10:53PM 45.2142 -109.9169 236° Southwest 391 450 40,000  Level Salt Lake Center
10:54PM 45.1550 -110.0389 236° Southwest 391 450 40,000  Level Salt Lake Center
10:55PM 45.0869 -110.1806 236° Southwest 391 450 40,000  Level Salt Lake Center
10:56PM 45.0275 -110.3028 235° Southwest 394 453 40,000  Level Salt Lake Center
10:57PM 44.9697 -110.4256 236° Southwest 393 452 40,000  Level Salt Lake Center
10:58PM 44.9011 -110.5681 236° Southwest 394 453 40,000  Level Salt Lake Center
10:59PM 44.8422 -110.6906 236° Southwest 393 452 40,000  Level Salt Lake Center
11:00PM 44.7831 -110.8119 236° Southwest 393 452 40,000  Level Salt Lake Center
11:01PM 44.7147 -110.9531 236° Southwest 391 450 40,000  Level Salt Lake Center
11:02PM 44.6567 -111.0717 235° Southwest 388 447 40,000  Level Salt Lake Center
11:04PM 44.5892 -111.2094 236° Southwest 384 442 40,000  Level Salt Lake Center
11:05PM 44.5297 -111.3286 235° Southwest 384 442 40,000  Level Salt Lake Center
11:06PM 44.4683 -111.4511 235° Southwest 386 444 40,000  Level Salt Lake Center
11:07PM 44.3997 -111.5908 236° Southwest 386 444 40,000  Level Salt Lake Center
11:08PM 44.3406 -111.7086 235° Southwest 386 444 40,000  Level Salt Lake Center
11:09PM 44.2825 -111.8256 235° Southwest 383 441 40,000  Level Salt Lake Center
11:10PM 44.2133 -111.9628 235° Southwest 385 443 40,000  Level Salt Lake Center
11:11PM 44.1544 -112.0789 235° Southwest 384 442 40,000  Level Salt Lake Center
11:12PM 44.0961 -112.1969 235° Southwest 385 443 40,000  Level Salt Lake Center
11:13PM 44.0697 -112.3647 258° West 398 458 40,000  Level Salt Lake Center
11:14PM 44.0536 -112.5103 261° West 400 460 40,000  Level Salt Lake Center
11:15PM 44.0344 -112.6789 261° West 396 456 40,000  Level Salt Lake Center
11:16PM 44.0164 -112.8214 260° West 391 450 40,000  Level Salt Lake Center
11:17PM 43.9989 -112.9658 260° West 395 455 40,000  Level Salt Lake Center
11:18PM 43.9800 -113.1311 261° West 389 448 40,000  Level Salt Lake Center
11:19PM 43.9636 -113.2744 261° West 392 451 40,000  Level Salt Lake Center
11:20PM 43.9422 -113.4411 260° West 393 452 40,000  Level Salt Lake Center
11:21PM 43.9258 -113.5875 261° West 402 463 40,000  Level Salt Lake Center
11:22PM 43.9067 -113.7314 260° West 399 459 40,000 -120 Level Salt Lake Center
11:23PM 43.8842 -113.8992 260° West 397 457 39,800 -1,380 Descending Salt Lake Center
11:24PM 43.8653 -114.0550 261° West 390 449 37,300 -2,400 Descending Salt Lake Center
11:25PM 43.8475 -114.1947 260° West 385 443 35,000 -2,340 Descending Salt Lake Center
11:26PM 43.8303 -114.3272 260° West 363 418 32,600 -2,460 Descending Salt Lake Center
11:27PM 43.8083 -114.4831 259° West 377 434 30,000 -2,460 Descending Salt Lake Center
11:28PM 43.7886 -114.6278 259° West 398 458 27,600 -2,400 Descending Salt Lake Center
11:29PM 43.7703 -114.7681 260° West 389 448 25,200 -2,640 Descending Salt Lake Center
11:30PM 43.7503 -114.9208 260° West 366 421 22,300 -2,580 Descending Salt Lake Center
11:31PM 43.7306 -115.0531 258° West 365 420 20,000 -2,280 Descending Salt Lake Center
11:32PM 43.7117 -115.1972 260° West 345 397 17,700 -2,100 Descending Salt Lake Center
11:33PM 43.6953 -115.3136 259° West 329 379 15,800 -2,100 Descending Salt Lake Center
11:34PM 43.6772 -115.4414 259° West 324 373 13,500 -1,860 Descending Salt Lake Center
11:35PM 43.6450 -115.5506 248° West 321 369 12,100 -1,380 Descending Salt Lake Center
11:36PM 43.6039 -115.6592 242° Southwest 310 357 10,700 -1,440 Descending Salt Lake Center
11:37PM 43.5622 -115.7594 240° Southwest 291 335 9,200 -1,380 Descending Salt Lake Center
11:38PM 43.5253 -115.8444 239° Southwest 271 312 8,000 -1,560 Descending Salt Lake Center
11:39PM 43.4758 -115.9267 230° Southwest 268 308 6,100 -1,020 Descending Salt Lake Center
11:40PM 43.4861 -116.0042 280° West 205 236 6,000 -480 Descending Salt Lake Center
11:41PM 43.5056 -116.0508 300° West 145 167 5,200 -840 Descending Salt Lake Center
11:42PM 43.5211 -116.0983 294° West 131 151 4,400 -780 Descending Salt Lake Center
11:43PM 43.5381 -116.1464 296° West 132 152 3,700 -540 Descending Salt Lake Center
11:44PM 43.5503 -116.1842 294° West 131 151 3,400 -300 Descending Salt Lake Center
11:46PM 43.5500 -116.2167 251° West  Level FlightAware Approximate
11:53PM 43.5644 -116.2229 251° West  Level Estimated
11:54PM 43.5644 -116.2229 251° West  Level Estimated